createdAt,value
2018-01-29T00:00:18.729Z,1024.92
2018-01-29T00:01:40.598Z,1024.98
2018-01-29T00:03:02.224Z,1024.95
2018-01-29T00:04:23.639Z,1024.94
2018-01-29T00:05:45.166Z,1024.99
2018-01-29T00:07:07.224Z,1025.02
2018-01-29T00:08:29.084Z,1024.99
2018-01-29T00:09:50.485Z,1024.96
2018-01-29T00:11:12.332Z,1024.9
2018-01-29T00:12:33.943Z,1024.93
2018-01-29T00:13:55.954Z,1024.94
2018-01-29T00:15:17.565Z,1024.93
2018-01-29T00:16:39.266Z,1024.96
2018-01-29T00:18:00.644Z,1024.9
2018-01-29T00:19:21.999Z,1024.93
2018-01-29T00:20:43.855Z,1024.89
2018-01-29T00:22:06.094Z,1024.92
2018-01-29T00:23:27.723Z,1024.91
2018-01-29T00:24:49.757Z,1024.78
2018-01-29T00:26:11.369Z,1024.88
2018-01-29T00:27:32.980Z,1024.89
2018-01-29T00:28:55.136Z,1024.84
2018-01-29T00:30:16.590Z,1024.79
2018-01-29T00:31:38.452Z,1024.8
2018-01-29T00:32:59.808Z,1024.85
2018-01-29T00:34:21.748Z,1024.77
2018-01-29T00:35:43.362Z,1024.78
2018-01-29T00:37:05.517Z,1024.7
2018-01-29T00:38:27.389Z,1024.68
2018-01-29T00:39:49.257Z,1024.78
2018-01-29T00:41:11.225Z,1024.71
2018-01-29T00:42:32.854Z,1024.77
2018-01-29T00:43:55.082Z,1024.74
2018-01-29T00:45:16.934Z,1024.74
2018-01-29T00:46:38.300Z,1024.81
2018-01-29T00:48:00.320Z,1024.73
2018-01-29T00:49:21.927Z,1024.82
2018-01-29T00:50:43.264Z,1024.79
2018-01-29T00:52:04.869Z,1024.75
2018-01-29T00:53:27.030Z,1024.7
2018-01-29T00:54:49.207Z,1024.74
2018-01-29T00:56:11.066Z,1024.72
2018-01-29T00:57:33.014Z,1024.63
2018-01-29T00:58:54.364Z,1024.65
2018-01-29T01:00:16.296Z,1024.71
2018-01-29T01:01:37.774Z,1024.7
2018-01-29T01:02:59.735Z,1024.71
2018-01-29T01:04:22.025Z,1024.71
2018-01-29T01:05:44.058Z,1024.63
2018-01-29T01:07:05.674Z,1024.68
2018-01-29T01:08:27.443Z,1024.64
2018-01-29T01:09:48.509Z,1024.6
2018-01-29T01:11:10.387Z,1024.55
2018-01-29T01:12:31.987Z,1024.52
2018-01-29T01:13:54.140Z,1024.51
2018-01-29T01:15:16.344Z,1024.45
2018-01-29T01:16:38.501Z,1024.47
2018-01-29T01:18:00.241Z,1024.43
2018-01-29T01:19:21.841Z,1024.45
2018-01-29T01:20:43.424Z,1024.48
2018-01-29T01:22:05.538Z,1024.48
2018-01-29T01:23:27.575Z,1024.44
2018-01-29T01:24:49.762Z,1024.47
2018-01-29T01:26:11.868Z,1024.4
2018-01-29T01:27:33.284Z,1024.46
2018-01-29T01:28:55.414Z,1024.33
2018-01-29T01:30:17.397Z,1024.44
2018-01-29T01:31:39.273Z,1024.42
2018-01-29T01:33:00.615Z,1024.37
2018-01-29T01:34:22.464Z,1024.36
2018-01-29T01:35:44.351Z,1024.38
2018-01-29T01:37:06.111Z,1024.39
2018-01-29T01:38:28.054Z,1024.43
2018-01-29T01:39:49.677Z,1024.44
2018-01-29T01:41:11.284Z,1024.47
2018-01-29T01:42:33.152Z,1024.42
2018-01-29T01:43:54.741Z,1024.43
2018-01-29T01:45:16.384Z,1024.49
2018-01-29T01:46:38.513Z,1024.45
2018-01-29T01:48:00.401Z,1024.44
2018-01-29T01:49:21.477Z,1024.47
2018-01-29T01:50:43.349Z,1024.45
2018-01-29T01:52:05.220Z,1024.48
2018-01-29T01:53:26.849Z,1024.46
2018-01-29T01:54:48.973Z,1024.42
2018-01-29T01:56:10.816Z,1024.57
2018-01-29T01:57:32.668Z,1024.55
2018-01-29T01:58:54.525Z,1024.57
2018-01-29T02:00:16.627Z,1024.59
2018-01-29T02:01:38.544Z,1024.54
2018-01-29T02:03:00.504Z,1024.54
2018-01-29T02:04:22.497Z,1024.47
2018-01-29T02:05:44.091Z,1024.51
2018-01-29T02:07:05.406Z,1024.54
2018-01-29T02:08:27.325Z,1024.62
2018-01-29T02:09:49.204Z,1024.31
2018-01-29T02:11:10.817Z,1024.47
2018-01-29T02:12:32.672Z,1024.36
2018-01-29T02:13:54.294Z,1024.35
2018-01-29T02:15:16.170Z,1024.38
2018-01-29T02:16:38.344Z,1024.35
2018-01-29T02:17:59.944Z,1024.25
2018-01-29T02:19:22.145Z,1024.12
2018-01-29T02:20:43.755Z,1024.17
2018-01-29T02:22:05.612Z,1024.23
2018-01-29T02:23:26.521Z,1024.19
2018-01-29T02:24:48.437Z,1024.2
2018-01-29T02:26:09.786Z,1024
2018-01-29T02:27:31.672Z,1024.14
2018-01-29T02:28:53.012Z,1023.95
2018-01-29T02:30:14.339Z,1023.93
2018-01-29T02:31:36.514Z,1023.93
2018-01-29T02:32:57.909Z,1023.9
2018-01-29T02:34:19.674Z,1023.86
2018-01-29T02:35:41.560Z,1023.91
2018-01-29T02:37:03.450Z,1023.96
2018-01-29T02:38:25.064Z,1023.89
2018-01-29T02:39:46.996Z,1023.91
2018-01-29T02:41:09.266Z,1023.82
2018-01-29T02:42:30.873Z,1023.88
2018-01-29T02:43:52.909Z,1023.9
2018-01-29T02:45:14.600Z,1023.9
2018-01-29T02:46:36.753Z,1023.82
2018-01-29T02:47:58.466Z,1023.76
2018-01-29T02:49:20.328Z,1023.83
2018-01-29T02:50:41.923Z,1023.75
2018-01-29T02:52:03.292Z,1023.87
2018-01-29T02:53:24.925Z,1023.81
2018-01-29T02:54:46.543Z,1023.77
2018-01-29T02:56:08.455Z,1023.75
2018-01-29T02:57:30.057Z,1023.72
2018-01-29T02:58:52.016Z,1023.71
2018-01-29T03:00:13.625Z,1023.71
2018-01-29T03:01:35.503Z,1023.72
2018-01-29T03:02:57.622Z,1023.72
2018-01-29T03:04:19.060Z,1023.71
2018-01-29T03:05:40.956Z,1023.65
2018-01-29T03:07:03.065Z,1023.67
2018-01-29T03:08:25.189Z,1023.71
2018-01-29T03:09:46.932Z,1023.7
2018-01-29T03:11:08.525Z,1023.77
2018-01-29T03:12:30.468Z,1023.61
2018-01-29T03:13:52.482Z,1023.59
2018-01-29T03:15:14.081Z,1023.57
2018-01-29T03:16:36.004Z,1023.57
2018-01-29T03:17:57.419Z,1023.6
2018-01-29T03:19:19.026Z,1023.59
2018-01-29T03:20:40.625Z,1023.61
2018-01-29T03:22:02.537Z,1023.57
2018-01-29T03:23:23.872Z,1023.59
2018-01-29T03:24:46.030Z,1023.55
2018-01-29T03:26:07.938Z,1023.53
2018-01-29T03:27:29.780Z,1023.55
2018-01-29T03:28:51.271Z,1023.55
2018-01-29T03:30:12.686Z,1023.57
2018-01-29T03:31:34.885Z,1023.56
2018-01-29T03:32:56.462Z,1023.56
2018-01-29T03:34:18.078Z,1023.52
2018-01-29T03:35:39.671Z,1023.48
2018-01-29T03:37:01.316Z,1023.42
2018-01-29T03:38:22.916Z,1023.29
2018-01-29T03:39:44.779Z,1023.29
2018-01-29T03:41:06.727Z,1023.29
2018-01-29T03:42:28.062Z,1023.27
2018-01-29T03:43:49.925Z,1023.29
2018-01-29T03:45:11.775Z,1023.25
2018-01-29T03:46:33.650Z,1023.18
2018-01-29T03:47:55.509Z,1023.14
2018-01-29T03:49:16.936Z,1023.13
2018-01-29T03:50:38.804Z,1023.16
2018-01-29T03:52:00.390Z,1023.1
2018-01-29T03:53:22.258Z,1022.99
2018-01-29T03:54:44.197Z,1023.01
2018-01-29T03:56:05.529Z,1022.93
2018-01-29T03:57:27.530Z,1022.95
2018-01-29T03:58:49.401Z,1022.91
2018-01-29T04:00:11.383Z,1022.92
2018-01-29T04:01:33.508Z,1022.95
2018-01-29T04:02:55.651Z,1022.83
2018-01-29T04:04:17.398Z,1022.77
2018-01-29T04:05:39.739Z,1022.83
2018-01-29T04:07:01.740Z,1022.8
2018-01-29T04:08:23.084Z,1022.8
2018-01-29T04:09:44.170Z,1022.75
2018-01-29T04:11:05.913Z,1022.73
2018-01-29T04:12:27.914Z,1022.72
2018-01-29T04:13:49.620Z,1022.68
2018-01-29T04:15:11.506Z,1022.77
2018-01-29T04:16:33.100Z,1022.75
2018-01-29T04:17:54.965Z,1022.76
2018-01-29T04:19:16.639Z,1022.69
2018-01-29T04:20:38.235Z,1022.77
2018-01-29T04:21:59.974Z,1022.76
2018-01-29T04:23:21.845Z,1022.8
2018-01-29T04:24:43.954Z,1022.71
2018-01-29T04:26:06.068Z,1022.7
2018-01-29T04:27:27.927Z,1022.71
2018-01-29T04:28:49.886Z,1022.61
2018-01-29T04:30:11.846Z,1022.69
2018-01-29T04:31:33.185Z,1022.71
2018-01-29T04:32:55.164Z,1022.67
2018-01-29T04:34:16.756Z,1022.77
2018-01-29T04:35:38.355Z,1022.67
2018-01-29T04:36:59.714Z,1022.69
2018-01-29T04:38:21.380Z,1022.69
2018-01-29T04:39:42.933Z,1022.68
2018-01-29T04:41:04.796Z,1022.55
2018-01-29T04:42:26.404Z,1022.69
2018-01-29T04:43:47.814Z,1022.68
2018-01-29T04:45:09.414Z,1022.69
2018-01-29T04:46:30.614Z,1022.65
2018-01-29T04:47:52.589Z,1022.67
2018-01-29T04:49:13.981Z,1022.69
2018-01-29T04:50:35.854Z,1022.64
2018-01-29T04:51:57.711Z,1022.72
2018-01-29T04:53:19.835Z,1022.6
2018-01-29T04:54:41.466Z,1022.6
2018-01-29T04:56:03.573Z,1022.56
2018-01-29T04:57:25.176Z,1022.56
2018-01-29T04:58:46.784Z,1022.58
2018-01-29T05:00:08.930Z,1022.56
2018-01-29T05:01:30.797Z,1022.59
2018-01-29T05:02:52.926Z,1022.62
2018-01-29T05:04:15.029Z,1022.46
2018-01-29T05:05:36.933Z,1022.4
2018-01-29T05:06:58.814Z,1022.5
2018-01-29T05:08:20.917Z,1022.38
2018-01-29T05:09:42.084Z,1022.44
2018-01-29T05:11:03.820Z,1022.48
2018-01-29T05:12:25.854Z,1022.44
2018-01-29T05:13:47.849Z,1022.48
2018-01-29T05:15:09.184Z,1022.52
2018-01-29T05:16:30.609Z,1022.43
2018-01-29T05:17:52.226Z,1022.58
2018-01-29T05:19:13.829Z,1022.41
2018-01-29T05:20:35.951Z,1022.54
2018-01-29T05:21:58.091Z,1022.41
2018-01-29T05:23:19.732Z,1022.44
2018-01-29T05:24:41.914Z,1022.53
2018-01-29T05:26:04.064Z,1022.3
2018-01-29T05:27:26.234Z,1022.36
2018-01-29T05:28:47.606Z,1022.46
2018-01-29T05:30:09.203Z,1022.22
2018-01-29T05:31:30.336Z,1022.45
2018-01-29T05:32:51.910Z,1022.35
2018-01-29T05:34:13.752Z,1022.47
2018-01-29T05:35:35.602Z,1022.36
2018-01-29T05:36:57.188Z,1022.31
2018-01-29T05:38:19.293Z,1022.31
2018-01-29T05:39:40.953Z,1022.28
2018-01-29T05:41:02.817Z,1022.27
2018-01-29T05:42:24.746Z,1022.14
2018-01-29T05:43:46.606Z,1022.1
2018-01-29T05:45:08.744Z,1022.25
2018-01-29T05:46:30.679Z,1022.13
2018-01-29T05:47:51.776Z,1022.23
2018-01-29T05:49:13.410Z,1022.1
2018-01-29T05:50:35.353Z,1022.21
2018-01-29T05:51:56.810Z,1022.23
2018-01-29T05:53:18.163Z,1022.2
2018-01-29T05:54:40.285Z,1022.2
2018-01-29T05:56:01.893Z,1022.15
2018-01-29T05:57:23.498Z,1022.12
2018-01-29T05:58:45.141Z,1022.13
2018-01-29T06:00:06.782Z,1022.15
2018-01-29T06:01:28.567Z,1022.1
2018-01-29T06:02:50.816Z,1022.09
2018-01-29T06:04:13.013Z,1022.08
2018-01-29T06:05:34.870Z,1022.09
2018-01-29T06:06:56.472Z,1022
2018-01-29T06:08:18.712Z,1022.04
2018-01-29T06:09:40.587Z,1022
2018-01-29T06:11:02.552Z,1021.98
2018-01-29T06:12:24.427Z,1021.97
2018-01-29T06:13:46.197Z,1022.02
2018-01-29T06:15:08.069Z,1021.96
2018-01-29T06:16:30.033Z,1022.01
2018-01-29T06:17:51.994Z,1022.01
2018-01-29T06:19:14.113Z,1021.98
2018-01-29T06:20:35.982Z,1021.92
2018-01-29T06:21:57.839Z,1022.09
2018-01-29T06:23:19.988Z,1022.09
2018-01-29T06:24:41.942Z,1022.04
2018-01-29T06:26:03.051Z,1022.07
2018-01-29T06:27:25.313Z,1022.03
2018-01-29T06:28:47.173Z,1022.05
2018-01-29T06:30:08.773Z,1022.01
2018-01-29T06:31:30.902Z,1021.95
2018-01-29T06:32:53.190Z,1021.95
2018-01-29T06:34:14.862Z,1021.9
2018-01-29T06:35:36.523Z,1021.91
2018-01-29T06:36:58.424Z,1021.89
2018-01-29T06:38:20.328Z,1022.03
2018-01-29T06:39:42.371Z,1021.91
2018-01-29T06:41:04.330Z,1021.92
2018-01-29T06:42:25.945Z,1021.93
2018-01-29T06:43:47.334Z,1021.95
2018-01-29T06:45:09.589Z,1021.87
2018-01-29T06:46:31.191Z,1021.91
2018-01-29T06:47:53.175Z,1021.92
2018-01-29T06:49:15.339Z,1021.92
2018-01-29T06:50:37.465Z,1021.87
2018-01-29T06:51:58.962Z,1021.95
2018-01-29T06:53:20.571Z,1021.99
2018-01-29T06:54:42.203Z,1021.95
2018-01-29T06:56:04.053Z,1021.91
2018-01-29T06:57:25.636Z,1021.93
2018-01-29T06:58:47.246Z,1021.94
2018-01-29T07:00:08.909Z,1021.87
2018-01-29T07:01:30.496Z,1021.89
2018-01-29T07:02:52.104Z,1021.89
2018-01-29T07:04:13.752Z,1021.9
2018-01-29T07:05:35.440Z,1021.9
2018-01-29T07:06:57.342Z,1021.92
2018-01-29T07:08:18.953Z,1021.98
2018-01-29T07:09:40.800Z,1021.95
2018-01-29T07:11:02.936Z,1021.96
2018-01-29T07:12:24.574Z,1021.97
2018-01-29T07:13:46.854Z,1021.85
2018-01-29T07:15:08.595Z,1021.94
2018-01-29T07:16:30.437Z,1021.92
2018-01-29T07:17:51.839Z,1021.92
2018-01-29T07:19:13.725Z,1021.88
2018-01-29T07:20:35.577Z,1021.76
2018-01-29T07:21:57.452Z,1021.7
2018-01-29T07:23:19.188Z,1021.7
2018-01-29T07:24:40.894Z,1021.72
2018-01-29T07:26:02.745Z,1021.72
2018-01-29T07:27:24.602Z,1021.67
2018-01-29T07:28:46.499Z,1021.69
2018-01-29T07:30:08.816Z,1021.63
2018-01-29T07:31:30.833Z,1021.72
2018-01-29T07:32:52.714Z,1021.73
2018-01-29T07:34:13.822Z,1021.7
2018-01-29T07:35:35.949Z,1021.67
2018-01-29T07:36:58.126Z,1021.73
2018-01-29T07:38:19.713Z,1021.69
2018-01-29T07:39:41.139Z,1021.88
2018-01-29T07:41:02.890Z,1021.68
2018-01-29T07:42:24.596Z,1021.86
2018-01-29T07:43:46.261Z,1021.84
2018-01-29T07:45:08.380Z,1021.92
2018-01-29T07:46:30.253Z,1021.88
2018-01-29T07:47:52.424Z,1021.98
2018-01-29T07:49:14.382Z,1021.97
2018-01-29T07:50:36.039Z,1021.88
2018-01-29T07:51:58.041Z,1021.87
2018-01-29T07:53:19.923Z,1021.79
2018-01-29T07:54:41.848Z,1021.8
2018-01-29T07:56:03.506Z,1021.74
2018-01-29T07:57:24.888Z,1021.54
2018-01-29T07:58:46.869Z,1021.65
2018-01-29T08:00:08.991Z,1021.59
2018-01-29T08:01:30.594Z,1021.62
2018-01-29T08:02:52.259Z,1021.59
2018-01-29T08:04:14.115Z,1021.66
2018-01-29T08:05:35.852Z,1021.57
2018-01-29T08:06:58.020Z,1021.59
2018-01-29T08:08:19.108Z,1021.57
2018-01-29T08:09:40.863Z,1021.46
2018-01-29T08:11:02.762Z,1021.69
2018-01-29T08:12:24.704Z,1021.54
2018-01-29T08:13:46.032Z,1021.55
2018-01-29T08:15:07.927Z,1021.73
2018-01-29T08:16:30.074Z,1021.63
2018-01-29T08:17:52.203Z,1021.62
2018-01-29T08:19:13.946Z,1021.58
2018-01-29T08:20:36.143Z,1021.57
2018-01-29T08:21:58.036Z,1021.43
2018-01-29T08:23:19.725Z,1021.42
2018-01-29T08:24:41.702Z,1021.4
2018-01-29T08:26:03.285Z,1021.41
2018-01-29T08:27:24.961Z,1021.36
2018-01-29T08:28:46.331Z,1021.43
2018-01-29T08:30:08.297Z,1021.36
2018-01-29T08:31:29.933Z,1021.31
2018-01-29T08:32:51.654Z,1021.33
2018-01-29T08:34:13.779Z,1021.3
2018-01-29T08:35:35.150Z,1021.24
2018-01-29T08:36:57.123Z,1021.2
2018-01-29T08:38:18.767Z,1021.2
2018-01-29T08:39:39.900Z,1021.31
2018-01-29T08:41:01.600Z,1021.31
2018-01-29T08:42:23.498Z,1021.13
2018-01-29T08:43:45.149Z,1021.24
2018-01-29T08:45:07.357Z,1021.21
2018-01-29T08:46:29.265Z,1021.26
2018-01-29T08:47:50.887Z,1021.19
2018-01-29T08:49:12.538Z,1021.28
2018-01-29T08:50:34.171Z,1021.21
2018-01-29T08:51:56.170Z,1021.19
2018-01-29T08:53:17.535Z,1021.23
2018-01-29T08:54:39.683Z,1021.18
2018-01-29T08:56:01.562Z,1021.2
2018-01-29T08:57:23.447Z,1021.23
2018-01-29T08:58:45.588Z,1021.22
2018-01-29T09:00:06.943Z,1021.1
2018-01-29T09:01:29.112Z,1021.05
2018-01-29T09:02:51.078Z,1021.03
2018-01-29T09:04:12.985Z,1021.02
2018-01-29T09:05:34.602Z,1021.05
2018-01-29T09:06:56.204Z,1021.02
2018-01-29T09:08:18.524Z,1021.07
2018-01-29T09:09:40.146Z,1020.98
2018-01-29T09:11:01.925Z,1020.93
2018-01-29T09:12:24.267Z,1020.93
2018-01-29T09:13:46.263Z,1020.96
2018-01-29T09:15:08.121Z,1020.82
2018-01-29T09:16:29.993Z,1020.86
2018-01-29T09:17:51.873Z,1020.8
2018-01-29T09:19:13.581Z,1020.9
2018-01-29T09:20:35.743Z,1020.85
2018-01-29T09:21:57.616Z,1020.95
2018-01-29T09:23:19.937Z,1020.96
2018-01-29T09:24:42.409Z,1020.83
2018-01-29T09:26:04.029Z,1020.92
2018-01-29T09:27:26.282Z,1020.91
2018-01-29T09:28:47.373Z,1020.89
2018-01-29T09:30:09.854Z,1020.94
2018-01-29T09:31:31.729Z,1020.92
2018-01-29T09:32:53.753Z,1020.71
2018-01-29T09:34:15.647Z,1020.75
2018-01-29T09:35:38.049Z,1020.73
2018-01-29T09:37:00.371Z,1020.81
2018-01-29T09:38:22.326Z,1020.92
2018-01-29T09:39:44.271Z,1020.77
2018-01-29T09:41:06.231Z,1020.77
2018-01-29T09:42:28.408Z,1020.7
2018-01-29T09:43:50.538Z,1020.61
2018-01-29T09:45:12.214Z,1020.58
2018-01-29T09:46:34.679Z,1020.59
2018-01-29T09:47:56.561Z,1020.68
2018-01-29T09:49:18.766Z,1020.55
2018-01-29T09:50:40.636Z,1020.6
2018-01-29T09:52:02.503Z,1020.61
2018-01-29T09:53:24.395Z,1020.52
2018-01-29T09:54:46.284Z,1020.56
2018-01-29T09:56:07.954Z,1020.55
2018-01-29T09:57:29.586Z,1020.51
2018-01-29T09:58:51.468Z,1020.54
2018-01-29T10:00:13.122Z,1020.43
2018-01-29T10:01:34.993Z,1020.5
2018-01-29T10:02:56.963Z,1020.43
2018-01-29T10:04:18.845Z,1020.42
2018-01-29T10:05:40.962Z,1020.42
2018-01-29T10:07:03.115Z,1020.45
2018-01-29T10:08:24.814Z,1020.62
2018-01-29T10:09:45.995Z,1020.6
2018-01-29T10:11:08.127Z,1020.61
2018-01-29T10:12:29.486Z,1020.57
2018-01-29T10:13:51.367Z,1020.63
2018-01-29T10:15:13.252Z,1020.57
2018-01-29T10:16:35.169Z,1020.56
2018-01-29T10:17:56.772Z,1020.54
2018-01-29T10:19:18.631Z,1020.56
2018-01-29T10:20:40.896Z,1020.57
2018-01-29T10:22:03.029Z,1020.44
2018-01-29T10:23:24.627Z,1020.49
2018-01-29T10:24:46.507Z,1020.45
2018-01-29T10:26:08.126Z,1020.51
2018-01-29T10:27:30.331Z,1020.41
2018-01-29T10:28:52.305Z,1020.51
2018-01-29T10:30:14.502Z,1020.47
2018-01-29T10:31:36.132Z,1020.44
2018-01-29T10:32:57.738Z,1020.37
2018-01-29T10:34:19.651Z,1020.41
2018-01-29T10:35:41.784Z,1020.48
2018-01-29T10:37:03.777Z,1020.3
2018-01-29T10:38:25.395Z,1020.46
2018-01-29T10:39:46.965Z,1020.22
2018-01-29T10:41:09.091Z,1020.4
2018-01-29T10:42:30.610Z,1020.3
2018-01-29T10:43:52.230Z,1020.31
2018-01-29T10:45:13.851Z,1020.32
2018-01-29T10:46:35.998Z,1020.3
2018-01-29T10:47:57.863Z,1020.22
2018-01-29T10:49:19.815Z,1020.28
2018-01-29T10:50:41.435Z,1020.24
2018-01-29T10:52:03.743Z,1020.24
2018-01-29T10:53:25.606Z,1020.19
2018-01-29T10:54:47.487Z,1020.24
2018-01-29T10:56:09.634Z,1020.17
2018-01-29T10:57:31.939Z,1020.17
2018-01-29T10:58:54.095Z,1020.18
2018-01-29T11:00:16.018Z,1020.14
2018-01-29T11:01:38.058Z,1020.08
2018-01-29T11:02:59.945Z,1020.13
2018-01-29T11:04:21.907Z,1020.06
2018-01-29T11:05:44.040Z,1020.06
2018-01-29T11:07:05.442Z,1019.99
2018-01-29T11:08:27.333Z,1019.99
2018-01-29T11:09:49.201Z,1019.93
2018-01-29T11:11:10.636Z,1019.97
2018-01-29T11:12:31.993Z,1019.9
2018-01-29T11:13:54.360Z,1019.95
2018-01-29T11:15:16.108Z,1019.9
2018-01-29T11:16:37.991Z,1019.9
2018-01-29T11:17:59.597Z,1019.81
2018-01-29T11:19:21.588Z,1019.79
2018-01-29T11:20:43.483Z,1019.81
2018-01-29T11:22:05.475Z,1019.87
2018-01-29T11:23:27.075Z,1019.89
2018-01-29T11:24:48.694Z,1019.78
2018-01-29T11:26:10.931Z,1019.82
2018-01-29T11:27:32.875Z,1019.84
2018-01-29T11:28:55.009Z,1019.74
2018-01-29T11:30:17.337Z,1019.76
2018-01-29T11:31:39.190Z,1019.78
2018-01-29T11:33:01.460Z,1019.75
2018-01-29T11:34:23.370Z,1019.73
2018-01-29T11:35:45.241Z,1019.69
2018-01-29T11:37:07.185Z,1019.57
2018-01-29T11:38:29.146Z,1019.44
2018-01-29T11:39:51.023Z,1019.54
2018-01-29T11:41:13.197Z,1019.5
2018-01-29T11:42:34.854Z,1019.42
2018-01-29T11:43:56.721Z,1019.44
2018-01-29T11:45:18.605Z,1019.37
2018-01-29T11:46:40.455Z,1019.41
2018-01-29T11:48:02.144Z,1019.35
2018-01-29T11:49:24.068Z,1019.4
2018-01-29T11:50:46.002Z,1019.37
2018-01-29T11:52:07.642Z,1019.36
2018-01-29T11:53:29.901Z,1019.31
2018-01-29T11:54:52.049Z,1019.39
2018-01-29T11:56:14.045Z,1019.31
2018-01-29T11:57:36.181Z,1019.21
2018-01-29T11:58:58.400Z,1019.27
2018-01-29T12:00:20.538Z,1019.25
2018-01-29T12:01:41.946Z,1019.24
2018-01-29T12:03:04.011Z,1019.17
2018-01-29T12:04:25.722Z,1019.16
2018-01-29T12:05:47.681Z,1019.07
2018-01-29T12:07:09.602Z,1019.12
2018-01-29T12:08:31.271Z,1019.13
2018-01-29T12:09:53.514Z,1019.03
2018-01-29T12:11:14.863Z,1019.05
2018-01-29T12:12:36.992Z,1019.01
2018-01-29T12:13:58.956Z,1018.95
2018-01-29T12:15:20.831Z,1019
2018-01-29T12:16:42.185Z,1018.91
2018-01-29T12:18:03.771Z,1018.9
2018-01-29T12:19:25.137Z,1018.96
2018-01-29T12:20:46.928Z,1018.84
2018-01-29T12:22:08.810Z,1018.95
2018-01-29T12:23:30.747Z,1018.92
2018-01-29T12:24:52.766Z,1018.76
2018-01-29T12:26:14.110Z,1018.77
2018-01-29T12:27:36.092Z,1018.92
2018-01-29T12:28:58.214Z,1018.79
2018-01-29T12:30:20.614Z,1018.78
2018-01-29T12:31:42.801Z,1018.78
2018-01-29T12:33:04.935Z,1018.72
2018-01-29T12:34:26.961Z,1018.79
2018-01-29T12:35:49.360Z,1018.78
2018-01-29T12:37:10.978Z,1018.71
2018-01-29T12:38:32.875Z,1018.77
2018-01-29T12:39:54.800Z,1018.81
2018-01-29T12:41:16.670Z,1018.68
2018-01-29T12:42:38.292Z,1018.68
2018-01-29T12:44:00.427Z,1018.72
2018-01-29T12:45:22.308Z,1018.63
2018-01-29T12:46:44.515Z,1018.72
2018-01-29T12:48:06.640Z,1018.75
2018-01-29T12:49:28.586Z,1018.69
2018-01-29T12:50:50.506Z,1018.69
2018-01-29T12:52:12.235Z,1018.55
2018-01-29T12:53:34.453Z,1018.57
2018-01-29T12:54:55.801Z,1018.51
2018-01-29T12:56:17.961Z,1018.7
2018-01-29T12:57:39.582Z,1018.51
2018-01-29T12:59:01.220Z,1018.45
2018-01-29T13:00:22.552Z,1018.45
2018-01-29T13:01:44.414Z,1018.43
2018-01-29T13:03:06.682Z,1018.43
2018-01-29T13:04:28.826Z,1018.39
2018-01-29T13:05:50.729Z,1018.35
2018-01-29T13:07:12.603Z,1018.25
2018-01-29T13:08:34.790Z,1018.29
2018-01-29T13:09:56.712Z,1018.34
2018-01-29T13:11:18.610Z,1018.28
2018-01-29T13:12:40.476Z,1018.26
2018-01-29T13:14:02.623Z,1018.26
2018-01-29T13:15:24.539Z,1018.22
2018-01-29T13:16:46.681Z,1018.24
2018-01-29T13:18:08.832Z,1018.12
2018-01-29T13:19:30.972Z,1018.14
2018-01-29T13:20:52.059Z,1018.16
2018-01-29T13:22:14.006Z,1018.18
2018-01-29T13:23:36.119Z,1018.08
2018-01-29T13:24:58.170Z,1018.13
2018-01-29T13:26:20.354Z,1018.14
2018-01-29T13:27:42.473Z,1018.1
2018-01-29T13:29:04.352Z,1018.07
2018-01-29T13:30:26.856Z,1018.1
2018-01-29T13:31:48.737Z,1018.04
2018-01-29T13:33:10.937Z,1018.03
2018-01-29T13:34:32.612Z,1018.03
2018-01-29T13:35:54.760Z,1017.98
2018-01-29T13:37:16.138Z,1017.99
2018-01-29T13:38:38.393Z,1017.96
2018-01-29T13:40:00.263Z,1017.84
2018-01-29T13:41:22.405Z,1017.88
2018-01-29T13:42:43.796Z,1017.79
2018-01-29T13:44:05.982Z,1017.69
2018-01-29T13:45:27.973Z,1017.69
2018-01-29T13:46:50.201Z,1017.73
2018-01-29T13:48:11.927Z,1017.71
2018-01-29T13:49:33.921Z,1017.73
2018-01-29T13:50:55.848Z,1017.72
2018-01-29T13:52:18.038Z,1017.71
2018-01-29T13:53:39.539Z,1017.63
2018-01-29T13:55:01.791Z,1017.6
2018-01-29T13:56:23.976Z,1017.56
2018-01-29T13:57:46.121Z,1017.55
2018-01-29T13:59:07.728Z,1017.53
2018-01-29T14:00:29.357Z,1017.53
2018-01-29T14:01:51.234Z,1017.59
2018-01-29T14:03:13.118Z,1017.5
2018-01-29T14:04:35.396Z,1017.49
2018-01-29T14:05:57.371Z,1017.52
2018-01-29T14:07:19.422Z,1017.53
2018-01-29T14:08:41.424Z,1017.46
2018-01-29T14:10:03.571Z,1017.48
2018-01-29T14:11:25.195Z,1017.53
2018-01-29T14:12:47.319Z,1017.47
2018-01-29T14:14:09.551Z,1017.49
2018-01-29T14:15:31.805Z,1017.48
2018-01-29T14:16:53.696Z,1017.44
2018-01-29T14:18:15.580Z,1017.45
2018-01-29T14:19:37.293Z,1017.42
2018-01-29T14:20:59.187Z,1017.46
2018-01-29T14:22:21.060Z,1017.4
2018-01-29T14:23:43.215Z,1017.41
2018-01-29T14:25:05.618Z,1017.4
2018-01-29T14:26:27.734Z,1017.41
2018-01-29T14:27:49.370Z,1017.44
2018-01-29T14:29:11.512Z,1017.42
2018-01-29T14:30:33.647Z,1017.43
2018-01-29T14:31:55.763Z,1017.38
2018-01-29T14:33:17.391Z,1017.33
2018-01-29T14:34:39.542Z,1017.37
2018-01-29T14:36:01.428Z,1017.33
2018-01-29T14:37:22.801Z,1017.37
2018-01-29T14:38:45.032Z,1017.35
2018-01-29T14:40:06.934Z,1017.33
2018-01-29T14:41:28.930Z,1017.26
2018-01-29T14:42:50.812Z,1017.28
2018-01-29T14:44:12.665Z,1017.28
2018-01-29T14:45:34.281Z,1017.19
2018-01-29T14:46:56.135Z,1017.21
2018-01-29T14:48:17.984Z,1017.21
2018-01-29T14:49:39.590Z,1017.11
2018-01-29T14:51:01.045Z,1017.15
2018-01-29T14:52:22.937Z,1017.16
2018-01-29T14:53:44.954Z,1017.13
2018-01-29T14:55:07.264Z,1017.14
2018-01-29T14:56:29.497Z,1017.17
2018-01-29T14:57:51.423Z,1017.22
2018-01-29T14:59:13.301Z,1017.27
2018-01-29T15:00:35.320Z,1017.19
2018-01-29T15:01:57.468Z,1017.11
2018-01-29T15:03:19.348Z,1017.15
2018-01-29T15:04:41.220Z,1017.13
2018-01-29T15:06:02.845Z,1017.09
2018-01-29T15:07:25.024Z,1017.09
2018-01-29T15:08:47.422Z,1017.13
2018-01-29T15:10:09.282Z,1017.17
2018-01-29T15:11:31.245Z,1017.08
2018-01-29T15:12:53.562Z,1017.14
2018-01-29T15:14:15.766Z,1017.12
2018-01-29T15:15:37.391Z,1017.16
2018-01-29T15:16:59.261Z,1017.11
2018-01-29T15:18:20.945Z,1017.09
2018-01-29T15:19:43.241Z,1017.12
2018-01-29T15:21:05.192Z,1017.12
2018-01-29T15:22:27.058Z,1017.06
2018-01-29T15:23:48.929Z,1017.06
2018-01-29T15:25:10.908Z,1017.16
2018-01-29T15:26:32.706Z,1017.13
2018-01-29T15:27:54.970Z,1017.14
2018-01-29T15:29:16.932Z,1017.1
2018-01-29T15:30:38.835Z,1017.07
2018-01-29T15:32:00.730Z,1017.1
2018-01-29T15:33:22.974Z,1017.15
2018-01-29T15:34:45.134Z,1017.17
2018-01-29T15:36:07.101Z,1017.12
2018-01-29T15:37:28.779Z,1017.12
2018-01-29T15:38:50.922Z,1017.11
2018-01-29T15:40:12.923Z,1017
2018-01-29T15:41:35.087Z,1017.01
2018-01-29T15:42:57.031Z,1017.02
2018-01-29T15:44:19.219Z,1016.99
2018-01-29T15:45:41.176Z,1017.03
2018-01-29T15:47:03.311Z,1017.04
2018-01-29T15:48:25.212Z,1016.97
2018-01-29T15:49:47.097Z,1017.05
2018-01-29T15:51:09.240Z,1017.11
2018-01-29T15:52:31.388Z,1017.1
2018-01-29T15:53:53.275Z,1017.06
2018-01-29T15:55:15.040Z,1016.99
2018-01-29T15:56:37.228Z,1017.01
2018-01-29T15:57:59.389Z,1016.89
2018-01-29T15:59:21.547Z,1017.04
2018-01-29T16:00:43.712Z,1017.1
2018-01-29T16:02:05.674Z,1017.07
2018-01-29T16:03:27.015Z,1017.06
2018-01-29T16:04:49.165Z,1017.09
2018-01-29T16:06:10.919Z,1017.14
2018-01-29T16:07:32.966Z,1017.11
2018-01-29T16:08:55.211Z,1017.06
2018-01-29T16:10:17.119Z,1017.22
2018-01-29T16:11:39.091Z,1017.22
2018-01-29T16:13:01.282Z,1017.19
2018-01-29T16:14:23.277Z,1017.17
2018-01-29T16:15:45.184Z,1017.21
2018-01-29T16:17:07.673Z,1017.22
2018-01-29T16:18:29.562Z,1017.13
2018-01-29T16:19:51.195Z,1017.21
2018-01-29T16:21:13.447Z,1017.33
2018-01-29T16:22:35.155Z,1017.34
2018-01-29T16:23:57.404Z,1017.39
2018-01-29T16:25:19.565Z,1017.39
2018-01-29T16:26:41.198Z,1017.26
2018-01-29T16:28:03.111Z,1017.35
2018-01-29T16:29:25.305Z,1017.32
2018-01-29T16:30:47.454Z,1017.41
2018-01-29T16:32:09.343Z,1017.39
2018-01-29T16:33:31.213Z,1017.45